createdAt,value
2017-10-09T00:00:16.584Z,0
2017-10-09T00:01:17.977Z,0
2017-10-09T00:02:39.515Z,0
2017-10-09T00:03:40.910Z,0
2017-10-09T00:05:02.466Z,0
2017-10-09T00:06:03.863Z,0
2017-10-09T00:07:25.436Z,0
2017-10-09T00:08:26.832Z,0
2017-10-09T00:09:48.370Z,0
2017-10-09T00:10:49.765Z,0
2017-10-09T00:12:11.848Z,0
2017-10-09T00:13:13.243Z,0
2017-10-09T00:14:34.785Z,0
2017-10-09T00:15:36.181Z,0
2017-10-09T00:16:58.263Z,0
2017-10-09T00:17:59.660Z,0
2017-10-09T00:19:21.711Z,0
2017-10-09T00:20:23.106Z,0
2017-10-09T00:21:45.189Z,0
2017-10-09T00:22:46.586Z,0
2017-10-09T00:24:08.122Z,0
2017-10-09T00:25:09.519Z,0
2017-10-09T00:26:31.090Z,0
2017-10-09T00:27:32.488Z,0
2017-10-09T00:28:55.561Z,0
2017-10-09T00:29:56.956Z,0
2017-10-09T00:31:18.529Z,0
2017-10-09T00:32:19.925Z,0
2017-10-09T00:33:41.483Z,0
2017-10-09T00:34:42.857Z,0
2017-10-09T00:36:04.431Z,0
2017-10-09T00:37:05.827Z,0
2017-10-09T00:38:27.371Z,0
2017-10-09T00:39:28.761Z,0
2017-10-09T00:40:50.331Z,0
2017-10-09T00:41:51.727Z,0
2017-10-09T00:43:13.266Z,0
2017-10-09T00:44:14.661Z,0
2017-10-09T00:45:36.235Z,0
2017-10-09T00:46:37.630Z,0
2017-10-09T00:47:59.167Z,0
2017-10-09T00:49:00.562Z,0
2017-10-09T00:50:22.116Z,0
2017-10-09T00:51:23.513Z,0
2017-10-09T00:52:45.085Z,0
2017-10-09T00:53:46.482Z,0
2017-10-09T00:55:08.021Z,0
2017-10-09T00:56:09.415Z,0
2017-10-09T00:57:30.988Z,0
2017-10-09T00:58:32.384Z,0
2017-10-09T00:59:53.924Z,0
2017-10-09T01:00:55.317Z,0
2017-10-09T01:02:16.889Z,0
2017-10-09T01:03:18.286Z,0
2017-10-09T01:04:39.824Z,0
2017-10-09T01:05:41.221Z,0
2017-10-09T01:07:02.792Z,0
2017-10-09T01:08:04.188Z,0
2017-10-09T01:09:26.239Z,0
2017-10-09T01:10:27.635Z,0
2017-10-09T01:11:49.210Z,0
2017-10-09T01:12:50.609Z,0
2017-10-09T01:14:12.135Z,0
2017-10-09T01:15:13.535Z,0
2017-10-09T01:16:35.105Z,0
2017-10-09T01:17:36.503Z,0
2017-10-09T01:18:58.038Z,0
2017-10-09T01:19:59.434Z,0
2017-10-09T01:21:21.010Z,0
2017-10-09T01:22:22.405Z,0
2017-10-09T01:23:43.941Z,0
2017-10-09T01:24:45.337Z,0
2017-10-09T01:26:06.908Z,0
2017-10-09T01:27:08.305Z,0
2017-10-09T01:28:29.843Z,0
2017-10-09T01:29:31.238Z,0
2017-10-09T01:30:52.826Z,0
2017-10-09T01:31:54.223Z,0
2017-10-09T01:33:16.254Z,0
2017-10-09T01:34:17.650Z,0
2017-10-09T01:35:39.205Z,0
2017-10-09T01:36:40.604Z,0
2017-10-09T01:38:02.109Z,0
2017-10-09T01:39:03.510Z,0
2017-10-09T01:40:25.003Z,0
2017-10-09T01:41:26.404Z,0
2017-10-09T01:42:48.487Z,0
2017-10-09T01:43:49.883Z,0
2017-10-09T01:45:11.419Z,0
2017-10-09T01:46:12.819Z,0
2017-10-09T01:47:34.387Z,0
2017-10-09T01:48:35.786Z,0
2017-10-09T01:49:57.320Z,0
2017-10-09T01:50:58.718Z,0
2017-10-09T01:52:20.291Z,0
2017-10-09T01:53:21.688Z,0
2017-10-09T01:54:43.222Z,0
2017-10-09T01:55:44.619Z,0
2017-10-09T01:57:06.197Z,0
2017-10-09T01:58:07.588Z,0
2017-10-09T01:59:29.125Z,0
2017-10-09T02:00:30.522Z,0
2017-10-09T02:01:52.095Z,0
2017-10-09T02:02:53.492Z,0
2017-10-09T02:04:15.026Z,0
2017-10-09T02:05:16.421Z,0
2017-10-09T02:06:37.993Z,0
2017-10-09T02:07:39.391Z,0
2017-10-09T02:09:00.930Z,0
2017-10-09T02:10:02.326Z,0
2017-10-09T02:11:23.898Z,0
2017-10-09T02:12:25.293Z,0
2017-10-09T02:13:46.831Z,0
2017-10-09T02:14:48.228Z,0
2017-10-09T02:16:09.781Z,0
2017-10-09T02:17:11.179Z,0
2017-10-09T02:18:32.748Z,0
2017-10-09T02:19:34.147Z,0
2017-10-09T02:20:55.683Z,0
2017-10-09T02:21:57.079Z,0
2017-10-09T02:23:18.654Z,0
2017-10-09T02:24:20.050Z,0
2017-10-09T02:25:41.585Z,0
2017-10-09T02:26:42.982Z,0
2017-10-09T02:28:06.089Z,0
2017-10-09T02:29:07.486Z,0
2017-10-09T02:30:29.022Z,0
2017-10-09T02:31:30.420Z,0
2017-10-09T02:32:51.990Z,0
2017-10-09T02:33:53.389Z,0
2017-10-09T02:35:14.924Z,0
2017-10-09T02:36:16.318Z,0
2017-10-09T02:37:37.891Z,0
2017-10-09T02:38:39.290Z,0
2017-10-09T02:40:01.258Z,0
2017-10-09T02:41:02.633Z,0
2017-10-09T02:42:24.231Z,0
2017-10-09T02:43:25.630Z,0
2017-10-09T02:44:47.136Z,0
2017-10-09T02:45:48.535Z,0
2017-10-09T02:47:10.108Z,0
2017-10-09T02:48:11.503Z,0
2017-10-09T02:49:33.043Z,0
2017-10-09T02:50:34.436Z,0
2017-10-09T02:51:56.521Z,0
2017-10-09T02:52:57.916Z,0
2017-10-09T02:54:19.453Z,0
2017-10-09T02:55:20.848Z,0
2017-10-09T02:56:42.445Z,0
2017-10-09T02:57:43.842Z,0
2017-10-09T02:59:05.352Z,0
2017-10-09T03:00:06.752Z,0
2017-10-09T03:01:28.303Z,0
2017-10-09T03:02:29.701Z,0
2017-10-09T03:03:51.274Z,0
2017-10-09T03:04:52.670Z,0
2017-10-09T03:06:14.205Z,0
2017-10-09T03:07:15.600Z,0
2017-10-09T03:08:37.175Z,0
2017-10-09T03:09:38.572Z,0
2017-10-09T03:11:00.108Z,0
2017-10-09T03:12:01.504Z,0
2017-10-09T03:13:23.077Z,0
2017-10-09T03:14:24.475Z,0
2017-10-09T03:15:46.011Z,0
2017-10-09T03:16:47.404Z,0
2017-10-09T03:18:08.978Z,0
2017-10-09T03:19:10.376Z,0
2017-10-09T03:20:31.911Z,0
2017-10-09T03:21:33.306Z,0
2017-10-09T03:22:55.393Z,0
2017-10-09T03:23:56.788Z,0
2017-10-09T03:25:18.324Z,0
2017-10-09T03:26:19.720Z,0
2017-10-09T03:27:51.232Z,0
2017-10-09T03:28:52.630Z,0
2017-10-09T03:30:14.116Z,0
2017-10-09T03:31:15.513Z,0
2017-10-09T03:32:37.012Z,0
2017-10-09T03:33:38.411Z,0
2017-10-09T03:34:59.893Z,0
2017-10-09T03:36:01.291Z,0
2017-10-09T03:37:22.794Z,0
2017-10-09T03:38:24.193Z,0
2017-10-09T03:39:45.675Z,0
2017-10-09T03:40:47.072Z,0
2017-10-09T03:42:08.592Z,0
2017-10-09T03:43:09.987Z,0
2017-10-09T03:44:31.470Z,0
2017-10-09T03:45:32.866Z,0
2017-10-09T03:46:54.351Z,0
2017-10-09T03:47:55.747Z,0
2017-10-09T03:49:29.043Z,0
2017-10-09T03:50:30.439Z,0
2017-10-09T03:51:51.924Z,0
2017-10-09T03:52:53.321Z,0
2017-10-09T03:54:14.826Z,0
2017-10-09T03:55:16.223Z,0
2017-10-09T03:56:37.707Z,0
2017-10-09T03:57:39.103Z,0
2017-10-09T03:59:00.606Z,0
2017-10-09T04:00:02.004Z,0
2017-10-09T04:01:23.491Z,0
2017-10-09T04:02:24.931Z,0
2017-10-09T04:03:46.440Z,0
2017-10-09T04:04:47.835Z,0
2017-10-09T04:06:09.319Z,0
2017-10-09T04:07:10.713Z,0
2017-10-09T04:08:32.214Z,0
2017-10-09T04:09:33.611Z,0
2017-10-09T04:10:55.093Z,0
2017-10-09T04:11:56.490Z,0
2017-10-09T04:13:17.992Z,0
2017-10-09T04:14:19.390Z,0
2017-10-09T04:15:40.898Z,0
2017-10-09T04:16:42.326Z,0
2017-10-09T04:18:08.117Z,0
2017-10-09T04:19:09.521Z,0
2017-10-09T04:20:31.148Z,0
2017-10-09T04:21:32.632Z,0
2017-10-09T04:22:54.315Z,0
2017-10-09T04:23:55.854Z,0
2017-10-09T04:25:17.625Z,0
2017-10-09T04:26:19.585Z,0
2017-10-09T04:27:41.573Z,0
2017-10-09T04:28:43.190Z,0
2017-10-09T04:30:05.149Z,0
2017-10-09T04:31:06.527Z,0
2017-10-09T04:32:28.013Z,0
2017-10-09T04:33:30.265Z,0
2017-10-09T04:34:51.772Z,0
2017-10-09T04:35:53.171Z,0
2017-10-09T04:37:14.649Z,0
2017-10-09T04:38:16.049Z,0
2017-10-09T04:39:37.553Z,0
2017-10-09T04:40:38.954Z,0
2017-10-09T04:42:00.433Z,0
2017-10-09T04:43:01.831Z,0
2017-10-09T04:44:23.333Z,0
2017-10-09T04:45:24.729Z,0
2017-10-09T04:46:46.213Z,0
2017-10-09T04:47:47.609Z,0
2017-10-09T04:49:09.113Z,0
2017-10-09T04:50:10.510Z,0
2017-10-09T04:51:32.007Z,0
2017-10-09T04:52:33.403Z,0
2017-10-09T04:53:54.908Z,0
2017-10-09T04:54:56.306Z,0
2017-10-09T04:56:17.794Z,0
2017-10-09T04:57:19.191Z,0
2017-10-09T04:58:40.696Z,0
2017-10-09T04:59:42.093Z,0
2017-10-09T05:01:03.591Z,0
2017-10-09T05:02:04.985Z,0
2017-10-09T05:03:26.487Z,0
2017-10-09T05:04:27.885Z,0
2017-10-09T05:05:49.365Z,0
2017-10-09T05:06:50.763Z,0
2017-10-09T05:08:12.267Z,0
2017-10-09T05:09:13.664Z,0
2017-10-09T05:10:35.145Z,4
2017-10-09T05:11:36.543Z,0
2017-10-09T05:12:58.050Z,0
2017-10-09T05:13:59.446Z,4
2017-10-09T05:15:20.946Z,4
2017-10-09T05:16:22.342Z,4
2017-10-09T05:17:43.828Z,4
2017-10-09T05:18:45.224Z,8
2017-10-09T05:20:06.727Z,8
2017-10-09T05:21:08.124Z,8
2017-10-09T05:22:29.604Z,8
2017-10-09T05:23:31.002Z,16
2017-10-09T05:24:52.506Z,16
2017-10-09T05:25:53.905Z,20
2017-10-09T05:27:15.388Z,24
2017-10-09T05:28:16.786Z,32
2017-10-09T05:29:38.295Z,36
2017-10-09T05:30:39.693Z,44
2017-10-09T05:32:01.181Z,56
2017-10-09T05:33:02.576Z,64
2017-10-09T05:34:24.083Z,76
2017-10-09T05:35:25.482Z,88
2017-10-09T05:36:46.967Z,100
2017-10-09T05:37:48.367Z,112
2017-10-09T05:39:09.876Z,128
2017-10-09T05:40:11.274Z,140
2017-10-09T05:41:32.767Z,160
2017-10-09T05:42:34.164Z,180
2017-10-09T05:43:55.670Z,204
2017-10-09T05:44:57.069Z,228
2017-10-09T05:46:18.558Z,256
2017-10-09T05:47:19.955Z,280
2017-10-09T05:48:41.461Z,312
2017-10-09T05:49:42.861Z,336
2017-10-09T05:51:04.377Z,372
2017-10-09T05:52:05.776Z,400
2017-10-09T05:53:27.287Z,428
2017-10-09T05:54:28.686Z,452
2017-10-09T05:55:50.177Z,480
2017-10-09T05:56:51.576Z,508
2017-10-09T05:58:13.067Z,536
2017-10-09T05:59:14.466Z,560
2017-10-09T06:00:35.977Z,616
2017-10-09T06:01:37.381Z,652
2017-10-09T06:02:58.869Z,708
2017-10-09T06:04:00.266Z,768
2017-10-09T06:05:21.780Z,856
2017-10-09T06:06:23.179Z,932
2017-10-09T06:07:44.669Z,1052
2017-10-09T06:08:46.068Z,1140
2017-10-09T06:10:07.584Z,1260
2017-10-09T06:11:08.985Z,1332
2017-10-09T06:12:30.478Z,1396
2017-10-09T06:13:31.878Z,1444
2017-10-09T06:14:53.388Z,1492
2017-10-09T06:15:54.793Z,1520
2017-10-09T06:17:16.287Z,1568
2017-10-09T06:18:17.693Z,1608
2017-10-09T06:19:39.198Z,1696
2017-10-09T06:20:40.598Z,1776
2017-10-09T06:22:02.097Z,1908
2017-10-09T06:23:03.495Z,2060
2017-10-09T06:24:25.001Z,2316
2017-10-09T06:25:26.405Z,2576
2017-10-09T06:26:47.898Z,3056
2017-10-09T06:27:49.297Z,3292
2017-10-09T06:29:10.810Z,3664
2017-10-09T06:30:12.210Z,3936
2017-10-09T06:31:33.707Z,4136
2017-10-09T06:32:35.106Z,4204
2017-10-09T06:33:56.616Z,4092
2017-10-09T06:34:58.021Z,4064
2017-10-09T06:36:19.518Z,4100
2017-10-09T06:37:20.918Z,3904
2017-10-09T06:38:42.408Z,3928
2017-10-09T06:39:43.806Z,3840
2017-10-09T06:41:05.316Z,3672
2017-10-09T06:42:06.720Z,3568
2017-10-09T06:43:28.212Z,3520
2017-10-09T06:44:29.615Z,3496
2017-10-09T06:45:51.130Z,3544
2017-10-09T06:46:52.532Z,3636
2017-10-09T06:48:14.027Z,3620
2017-10-09T06:49:15.429Z,3496
2017-10-09T06:50:37.433Z,3276
2017-10-09T06:51:38.838Z,3108
2017-10-09T06:53:00.330Z,2920
2017-10-09T06:54:01.732Z,2876
2017-10-09T06:55:23.243Z,2876
2017-10-09T06:56:24.648Z,2888
2017-10-09T06:57:46.146Z,2904
2017-10-09T06:58:47.545Z,2948
2017-10-09T07:00:09.060Z,2988
2017-10-09T07:01:10.464Z,3048
2017-10-09T07:02:31.956Z,3144
2017-10-09T07:03:33.360Z,3228
2017-10-09T07:04:54.870Z,3352
2017-10-09T07:05:56.276Z,3456
2017-10-09T07:07:17.774Z,3604
2017-10-09T07:08:19.175Z,3720
2017-10-09T07:09:40.688Z,3860
2017-10-09T07:10:42.093Z,3932
2017-10-09T07:12:03.588Z,3996
2017-10-09T07:13:04.992Z,4008
2017-10-09T07:14:26.512Z,3984
2017-10-09T07:15:27.916Z,3948
2017-10-09T07:16:49.906Z,3888
2017-10-09T07:17:51.309Z,3828
2017-10-09T07:19:12.825Z,3772
2017-10-09T07:20:14.229Z,3732
2017-10-09T07:21:35.724Z,3696
2017-10-09T07:22:37.128Z,3664
2017-10-09T07:23:58.623Z,3632
2017-10-09T07:25:00.028Z,3652
2017-10-09T07:26:21.541Z,3632
2017-10-09T07:27:22.944Z,3588
2017-10-09T07:28:44.443Z,3484
2017-10-09T07:29:45.847Z,3408
2017-10-09T07:31:07.363Z,3324
2017-10-09T07:32:08.769Z,3268
2017-10-09T07:33:30.262Z,3216
2017-10-09T07:34:31.666Z,3232
2017-10-09T07:35:53.183Z,3276
2017-10-09T07:36:54.587Z,3276
2017-10-09T07:38:16.084Z,3284
2017-10-09T07:39:17.488Z,3308
2017-10-09T07:40:39.002Z,3384
2017-10-09T07:41:40.407Z,3532
2017-10-09T07:43:01.909Z,3828
2017-10-09T07:44:03.314Z,4192
2017-10-09T07:45:24.828Z,4884
2017-10-09T07:46:26.233Z,5304
2017-10-09T07:47:47.733Z,5520
2017-10-09T07:48:49.137Z,5608
2017-10-09T07:50:10.654Z,5800
2017-10-09T07:51:12.057Z,6100
2017-10-09T07:52:33.551Z,5708
2017-10-09T07:53:34.955Z,5480
2017-10-09T07:54:56.472Z,5696
2017-10-09T07:55:57.875Z,5728
2017-10-09T07:57:19.372Z,5376
2017-10-09T07:58:20.779Z,5200
2017-10-09T07:59:42.293Z,5028
2017-10-09T08:00:43.700Z,4936
2017-10-09T08:02:05.685Z,4952
2017-10-09T08:03:07.089Z,4764
2017-10-09T08:04:28.588Z,4620
2017-10-09T08:05:29.993Z,4540
2017-10-09T08:06:51.507Z,4504
2017-10-09T08:07:52.913Z,4528
2017-10-09T08:09:14.410Z,4404
2017-10-09T08:10:15.817Z,4224
2017-10-09T08:11:37.337Z,3816
2017-10-09T08:12:38.742Z,3608
2017-10-09T08:14:00.241Z,3556
2017-10-09T08:15:01.648Z,3720
2017-10-09T08:16:23.160Z,4256
2017-10-09T08:17:24.566Z,4920
2017-10-09T08:18:46.061Z,5764
2017-10-09T08:19:47.465Z,5900
2017-10-09T08:21:08.984Z,5464
2017-10-09T08:22:10.386Z,5180
2017-10-09T08:23:31.886Z,5024
2017-10-09T08:24:33.293Z,4944
2017-10-09T08:25:54.806Z,4976
2017-10-09T08:26:56.212Z,5108
2017-10-09T08:28:17.709Z,5000
2017-10-09T08:29:19.115Z,4972
2017-10-09T08:30:40.631Z,5216
2017-10-09T08:31:42.036Z,5256
2017-10-09T08:33:03.535Z,5280
2017-10-09T08:34:04.939Z,5464
2017-10-09T08:35:26.457Z,5540
2017-10-09T08:36:27.863Z,5612
2017-10-09T08:37:49.369Z,5968
2017-10-09T08:38:50.776Z,6144
2017-10-09T08:40:12.295Z,6068
2017-10-09T08:41:13.699Z,5948
2017-10-09T08:42:35.201Z,6156
2017-10-09T08:43:36.606Z,6792
2017-10-09T08:44:58.123Z,7624
2017-10-09T08:45:59.530Z,7600
2017-10-09T08:47:21.046Z,6956
2017-10-09T08:48:22.453Z,6944
2017-10-09T08:49:43.953Z,6408
2017-10-09T08:50:45.358Z,6248
2017-10-09T08:52:06.877Z,6732
2017-10-09T08:53:08.284Z,6880
2017-10-09T08:54:29.787Z,6788
2017-10-09T08:55:31.189Z,6724
2017-10-09T08:56:52.716Z,6428
2017-10-09T08:57:54.120Z,6520
2017-10-09T08:59:15.620Z,6720
2017-10-09T09:00:17.029Z,6744
2017-10-09T09:01:39.544Z,6620
2017-10-09T09:02:40.952Z,6468
2017-10-09T09:04:02.456Z,5988
2017-10-09T09:05:03.861Z,5948
2017-10-09T09:06:25.378Z,6440
2017-10-09T09:07:26.787Z,6768
2017-10-09T09:08:48.286Z,7304
2017-10-09T09:09:49.696Z,7344
2017-10-09T09:11:11.215Z,7112
2017-10-09T09:12:12.621Z,6996
2017-10-09T09:13:34.121Z,7012
2017-10-09T09:14:35.527Z,7432
2017-10-09T09:15:57.045Z,7740
2017-10-09T09:16:58.452Z,7652
2017-10-09T09:18:19.949Z,7392
2017-10-09T09:19:21.356Z,7488
2017-10-09T09:20:42.874Z,7300
2017-10-09T09:21:44.283Z,6972
2017-10-09T09:23:05.782Z,7304
2017-10-09T09:24:07.191Z,7656
2017-10-09T09:25:28.715Z,7912
2017-10-09T09:26:30.118Z,8052
2017-10-09T09:27:51.620Z,8228
2017-10-09T09:28:53.027Z,8408
2017-10-09T09:30:14.530Z,8612
2017-10-09T09:31:15.934Z,8572
2017-10-09T09:32:37.454Z,8360
2017-10-09T09:33:38.863Z,8204
2017-10-09T09:35:00.369Z,8320
2017-10-09T09:36:01.776Z,8368
2017-10-09T09:37:23.295Z,7892
2017-10-09T09:38:24.705Z,7672
2017-10-09T09:39:46.206Z,7832
2017-10-09T09:40:47.615Z,7700
2017-10-09T09:42:09.626Z,7704
2017-10-09T09:43:11.034Z,7816
2017-10-09T09:44:32.535Z,8244
2017-10-09T09:45:33.943Z,8228
2017-10-09T09:46:55.954Z,7812
2017-10-09T09:47:57.365Z,7320
2017-10-09T09:49:18.863Z,7116
2017-10-09T09:50:20.271Z,6960
2017-10-09T09:51:41.788Z,6908
2017-10-09T09:52:43.202Z,6848
2017-10-09T09:54:05.198Z,6852
2017-10-09T09:55:06.604Z,6932
2017-10-09T09:56:28.122Z,7204
2017-10-09T09:57:29.537Z,7220
2017-10-09T09:58:51.038Z,7304
2017-10-09T09:59:52.445Z,7496
2017-10-09T10:01:13.962Z,7552
2017-10-09T10:02:15.372Z,7716
2017-10-09T10:03:36.870Z,8112
2017-10-09T10:04:38.279Z,8180
2017-10-09T10:05:59.801Z,8212
2017-10-09T10:07:01.209Z,8136
2017-10-09T10:08:22.713Z,8104
2017-10-09T10:09:24.120Z,8188
2017-10-09T10:10:45.626Z,8084
2017-10-09T10:11:47.037Z,8068
2017-10-09T10:13:08.555Z,8180
2017-10-09T10:14:09.963Z,8488
2017-10-09T10:15:31.466Z,8380
2017-10-09T10:16:32.871Z,8164
2017-10-09T10:17:54.393Z,8076
2017-10-09T10:18:55.800Z,7968
2017-10-09T10:20:17.309Z,7832
2017-10-09T10:21:18.711Z,7772
2017-10-09T10:22:40.231Z,7552
2017-10-09T10:23:41.641Z,7372
2017-10-09T10:25:03.169Z,7432
2017-10-09T10:26:04.550Z,7524
2017-10-09T10:27:26.071Z,7520
2017-10-09T10:28:27.479Z,7580
2017-10-09T10:29:48.985Z,7968
2017-10-09T10:30:50.395Z,8772
2017-10-09T10:32:11.914Z,9936
2017-10-09T10:33:13.325Z,10352
2017-10-09T10:34:34.827Z,10700
2017-10-09T10:35:36.240Z,10884
2017-10-09T10:36:57.761Z,10924
2017-10-09T10:37:59.171Z,10492
2017-10-09T10:39:20.677Z,10252
2017-10-09T10:40:22.085Z,9976
2017-10-09T10:41:43.605Z,9544
2017-10-09T10:42:45.016Z,9224
2017-10-09T10:44:06.516Z,8808
2017-10-09T10:45:07.926Z,8416
2017-10-09T10:46:29.451Z,7904
2017-10-09T10:47:30.860Z,7800
2017-10-09T10:48:52.854Z,8076
2017-10-09T10:49:54.263Z,8528
2017-10-09T10:51:15.782Z,8448
2017-10-09T10:52:17.193Z,8228
2017-10-09T10:53:38.699Z,7616
2017-10-09T10:54:40.107Z,7532
2017-10-09T10:56:01.612Z,6636
2017-10-09T10:57:03.024Z,6032
2017-10-09T10:58:24.546Z,5576
2017-10-09T10:59:25.955Z,5920
2017-10-09T11:00:47.458Z,7052
2017-10-09T11:01:48.866Z,7968
2017-10-09T11:03:10.388Z,8620
2017-10-09T11:04:11.797Z,8892
2017-10-09T11:05:33.790Z,9312
2017-10-09T11:06:35.205Z,9380
2017-10-09T11:07:57.226Z,9288
2017-10-09T11:08:58.638Z,9072
2017-10-09T11:10:20.166Z,9088
2017-10-09T11:11:21.575Z,9012
2017-10-09T11:12:43.138Z,8620
2017-10-09T11:13:44.548Z,8688
2017-10-09T11:15:06.579Z,8948
2017-10-09T11:16:07.988Z,8912
2017-10-09T11:17:30.064Z,8340
2017-10-09T11:18:31.473Z,7276
2017-10-09T11:19:52.995Z,6680
2017-10-09T11:20:54.403Z,6716
2017-10-09T11:22:15.927Z,7360
2017-10-09T11:23:17.335Z,7176
2017-10-09T11:24:39.405Z,6780
2017-10-09T11:25:40.815Z,6192
2017-10-09T11:27:02.380Z,5304
2017-10-09T11:28:03.792Z,4764
2017-10-09T11:29:25.312Z,5072
2017-10-09T11:30:26.722Z,5764
2017-10-09T11:31:48.279Z,6256
2017-10-09T11:32:49.690Z,5712
2017-10-09T11:34:11.688Z,5640
2017-10-09T11:35:13.096Z,5392
2017-10-09T11:36:34.671Z,5600
2017-10-09T11:37:36.078Z,6736
2017-10-09T11:38:57.647Z,8036
2017-10-09T11:39:59.054Z,8168
2017-10-09T11:41:20.573Z,8052
2017-10-09T11:42:21.985Z,7712
2017-10-09T11:43:43.545Z,7464
2017-10-09T11:44:44.956Z,7160
2017-10-09T11:46:06.481Z,7024
2017-10-09T11:47:07.888Z,7208
2017-10-09T11:48:29.446Z,7480
2017-10-09T11:49:30.857Z,7376
2017-10-09T11:50:52.893Z,7904
2017-10-09T11:51:54.311Z,8024
2017-10-09T11:53:16.368Z,7928
2017-10-09T11:54:17.782Z,8340
2017-10-09T11:55:39.823Z,8404
2017-10-09T11:56:41.234Z,8052
2017-10-09T11:58:03.298Z,7592
2017-10-09T11:59:04.708Z,8200
2017-10-09T12:00:26.230Z,8284
2017-10-09T12:01:27.642Z,8704
2017-10-09T12:02:49.720Z,8268
2017-10-09T12:03:51.125Z,7408
2017-10-09T12:05:13.158Z,7364
2017-10-09T12:06:14.570Z,7268
2017-10-09T12:07:36.637Z,6344
2017-10-09T12:08:38.063Z,6896
2017-10-09T12:10:00.193Z,6600
2017-10-09T12:11:01.605Z,6560
2017-10-09T12:12:23.665Z,6080
2017-10-09T12:13:25.075Z,5912
2017-10-09T12:14:46.592Z,7588
2017-10-09T12:15:48.011Z,8384
2017-10-09T12:17:09.590Z,8052
2017-10-09T12:18:10.978Z,7420
2017-10-09T12:19:32.501Z,7120
2017-10-09T12:20:33.915Z,6840
2017-10-09T12:21:55.451Z,7364
2017-10-09T12:22:56.866Z,7848
2017-10-09T12:24:18.419Z,8024
2017-10-09T12:25:19.829Z,7780
2017-10-09T12:26:41.352Z,8300
2017-10-09T12:27:42.761Z,8392
2017-10-09T12:29:04.321Z,7992
2017-10-09T12:30:05.733Z,7056
2017-10-09T12:31:27.255Z,6276
2017-10-09T12:32:28.665Z,5896
2017-10-09T12:33:50.738Z,5232
2017-10-09T12:34:52.148Z,4884
2017-10-09T12:36:14.180Z,6160
2017-10-09T12:37:15.589Z,6596
2017-10-09T12:38:37.147Z,5160
2017-10-09T12:39:38.582Z,4756
2017-10-09T12:41:00.086Z,5248
2017-10-09T12:42:01.492Z,6088
2017-10-09T12:43:23.049Z,6184
2017-10-09T12:44:24.466Z,6224
2017-10-09T12:45:45.984Z,6452
2017-10-09T12:46:47.393Z,6808
2017-10-09T12:48:08.964Z,5052
2017-10-09T12:49:10.372Z,5884
2017-10-09T12:50:31.987Z,5520
2017-10-09T12:51:33.395Z,5984
2017-10-09T12:52:55.465Z,6380
2017-10-09T12:53:56.879Z,6452
2017-10-09T12:55:18.404Z,6416
2017-10-09T12:56:19.811Z,6504
2017-10-09T12:57:41.368Z,6760
2017-10-09T12:58:42.781Z,6688
2017-10-09T13:00:04.811Z,6772
2017-10-09T13:01:06.223Z,6924
2017-10-09T13:02:27.803Z,6768
2017-10-09T13:03:29.212Z,6652
2017-10-09T13:04:50.817Z,6588
2017-10-09T13:05:52.224Z,6748
2017-10-09T13:07:13.768Z,6700
2017-10-09T13:08:15.181Z,6088
2017-10-09T13:09:36.740Z,5160
2017-10-09T13:10:38.150Z,5580
2017-10-09T13:11:59.668Z,5148
2017-10-09T13:13:01.079Z,5100
2017-10-09T13:14:22.697Z,5632
2017-10-09T13:15:24.107Z,6316
2017-10-09T13:16:45.674Z,6372
2017-10-09T13:17:47.084Z,6240
2017-10-09T13:19:08.647Z,6808
2017-10-09T13:20:10.058Z,6796
2017-10-09T13:21:31.576Z,6200
2017-10-09T13:22:32.986Z,5088
2017-10-09T13:23:54.546Z,4468
2017-10-09T13:24:55.955Z,5112
2017-10-09T13:26:17.505Z,6024
2017-10-09T13:27:18.913Z,6424
2017-10-09T13:28:40.439Z,6388
2017-10-09T13:29:41.848Z,5616
2017-10-09T13:31:03.354Z,5444
2017-10-09T13:32:04.772Z,5684
2017-10-09T13:33:26.285Z,5004
2017-10-09T13:34:27.696Z,5108
2017-10-09T13:35:49.199Z,5300
2017-10-09T13:36:50.607Z,5644
2017-10-09T13:38:12.130Z,5040
2017-10-09T13:39:13.538Z,4948
2017-10-09T13:40:35.040Z,4572
2017-10-09T13:41:36.449Z,4476
2017-10-09T13:42:57.974Z,4580
2017-10-09T13:43:59.381Z,4728
2017-10-09T13:45:20.884Z,5360
2017-10-09T13:46:22.291Z,5440
2017-10-09T13:47:43.795Z,5520
2017-10-09T13:48:45.204Z,4912
2017-10-09T13:50:06.724Z,4544
2017-10-09T13:51:08.135Z,5356
2017-10-09T13:52:29.639Z,5432
2017-10-09T13:53:31.045Z,5076
2017-10-09T13:54:52.569Z,4504
2017-10-09T13:55:53.980Z,4528
2017-10-09T13:57:15.481Z,5132
2017-10-09T13:58:16.894Z,5652
2017-10-09T13:59:38.414Z,5760
2017-10-09T14:00:39.823Z,5676
2017-10-09T14:02:01.326Z,5444
2017-10-09T14:03:02.737Z,5200
2017-10-09T14:04:24.257Z,4176
2017-10-09T14:05:25.666Z,3668
2017-10-09T14:06:47.167Z,3740
2017-10-09T14:07:48.579Z,3512
2017-10-09T14:09:10.102Z,3208
2017-10-09T14:10:11.508Z,3000
2017-10-09T14:11:33.504Z,3356
2017-10-09T14:12:34.911Z,3568
2017-10-09T14:13:56.941Z,3632
2017-10-09T14:14:58.382Z,3596
2017-10-09T14:16:19.905Z,3588
2017-10-09T14:17:21.313Z,3628
2017-10-09T14:18:42.830Z,3732
2017-10-09T14:19:44.241Z,3620
2017-10-09T14:21:06.265Z,3580
2017-10-09T14:22:07.670Z,3776
2017-10-09T14:23:29.696Z,3904
2017-10-09T14:24:31.104Z,3896
2017-10-09T14:25:52.612Z,3860
2017-10-09T14:26:54.022Z,3940
2017-10-09T14:28:16.042Z,3996
2017-10-09T14:29:17.445Z,3972
2017-10-09T14:30:38.951Z,3912
2017-10-09T15:17:51.952Z,1916
2017-10-09T15:21:22.359Z,2252
2017-10-09T15:22:24.080Z,2420
2017-10-09T15:23:45.825Z,2224
2017-10-09T15:24:47.278Z,2352
2017-10-09T15:26:08.846Z,2268
2017-10-09T15:27:10.635Z,2044
2017-10-09T15:28:32.723Z,1996
2017-10-09T15:29:34.132Z,2056
2017-10-09T15:30:57.230Z,2060
2017-10-09T15:31:58.635Z,2064
2017-10-09T15:33:20.168Z,2020
2017-10-09T15:34:21.585Z,1892
2017-10-09T15:35:43.125Z,1704
2017-10-09T15:36:44.532Z,1572
2017-10-09T15:38:07.610Z,1392
2017-10-09T15:39:08.996Z,1316
2017-10-09T15:40:31.078Z,1312
2017-10-09T15:41:32.483Z,1344
2017-10-09T15:42:54.006Z,1412
2017-10-09T15:43:55.412Z,1472
2017-10-09T15:45:16.980Z,1580
2017-10-09T15:46:18.385Z,1660
2017-10-09T15:47:39.906Z,1716
2017-10-09T15:48:41.313Z,1728
2017-10-09T15:50:02.885Z,1736
2017-10-09T15:51:04.293Z,1664
2017-10-09T15:52:25.809Z,1568
2017-10-09T15:53:27.216Z,1536
2017-10-09T15:54:48.905Z,1572
2017-10-09T15:55:50.397Z,1596
2017-10-09T15:57:11.815Z,1600
2017-10-09T15:58:13.222Z,1588
2017-10-09T15:59:34.787Z,1596
2017-10-09T16:00:36.203Z,1572
2017-10-09T16:01:58.237Z,1488
2017-10-09T16:02:59.646Z,1392
2017-10-09T16:04:21.199Z,1284
2017-10-09T16:05:22.607Z,1212
2017-10-09T16:06:44.129Z,1104
2017-10-09T16:07:45.534Z,1072
2017-10-09T16:09:07.103Z,1056
2017-10-09T16:10:08.508Z,1040
2017-10-09T16:11:30.030Z,1028
2017-10-09T16:12:31.437Z,1004
2017-10-09T16:13:52.979Z,940
2017-10-09T16:14:54.388Z,884
2017-10-09T16:16:16.465Z,852
2017-10-09T16:17:17.878Z,820
2017-10-09T16:18:39.393Z,748
2017-10-09T16:19:40.800Z,704
2017-10-09T16:21:02.366Z,644
2017-10-09T16:22:03.770Z,592
2017-10-09T16:23:25.295Z,540
2017-10-09T16:24:26.724Z,504
2017-10-09T16:25:48.269Z,488
2017-10-09T16:26:49.672Z,448
2017-10-09T16:28:11.194Z,380
2017-10-09T16:29:12.606Z,340
2017-10-09T16:30:34.681Z,296
2017-10-09T16:31:36.112Z,268
2017-10-09T16:32:57.877Z,236
2017-10-09T16:33:59.369Z,220
2017-10-09T16:35:21.268Z,208
2017-10-09T16:36:22.677Z,196
2017-10-09T16:37:45.764Z,180
2017-10-09T16:38:47.192Z,164
2017-10-09T16:40:09.249Z,144
2017-10-09T16:41:10.676Z,124
2017-10-09T16:42:36.121Z,108
2017-10-09T16:43:37.525Z,88
2017-10-09T16:44:59.143Z,80
2017-10-09T16:46:00.546Z,68
2017-10-09T16:47:22.071Z,52
2017-10-09T16:48:23.474Z,44
2017-10-09T16:49:45.558Z,40
2017-10-09T16:50:46.962Z,32
2017-10-09T16:52:08.996Z,32
2017-10-09T16:53:10.398Z,28
2017-10-09T16:54:32.487Z,20
2017-10-09T16:55:33.892Z,16
2017-10-09T16:56:55.411Z,12
2017-10-09T16:57:56.815Z,8
2017-10-09T16:59:19.919Z,4
2017-10-09T17:00:21.324Z,4
2017-10-09T17:01:43.360Z,4
2017-10-09T17:02:44.763Z,4
2017-10-09T17:04:06.332Z,4
2017-10-09T17:05:07.736Z,4
2017-10-09T17:06:29.795Z,0
2017-10-09T17:07:31.199Z,0
2017-10-09T17:08:53.240Z,4
2017-10-09T17:09:54.661Z,4
2017-10-09T17:11:16.725Z,0
2017-10-09T17:12:18.125Z,0
2017-10-09T17:13:39.650Z,0
2017-10-09T17:14:41.053Z,0
2017-10-09T17:16:06.785Z,0
2017-10-09T17:17:08.157Z,0
2017-10-09T17:18:30.261Z,0